Coleharbor, North Dakota
Current Conditions -  °F | °C
As of 9:54 AM on Friday 21 Nov 2014 (Local Time) from KMOT Reporting Station
Clear Clear  
Wind Chill: -3°   Ceiling: Unl
Heat Index:   Visibility: 10mi
Dew Point: -5°   Wind: 14mph
Humidity: 59%   Direction: 210°SSW
Pressure: 29.62"   Gusts: NA
Location:  47.54°N, 101.22°W
Report Text: KMOT 211554Z 21012KT 10SM CLR 02/M05 A2962 RMK AO2 SLP051 T00221050
Loading
Personal Weather Stations






























Interactive Weather Map New forecast layout! Learn more

10-Day Weather Forecast

Advertisements
Track Severe Weather on mobile